Home > Products > Valid Products > TAF

000
FTPA31 PHFO 220900 AAA
TAFHNL
TAF AMD
PHNL 220905Z 2209/2312 02005KT P6SM FEW045
     FM222100 13009KT P6SM FEW030 SCT045
     FM230400 06007KT P6SM FEW030 SCT045=



000
FTPA31 PHFO 220500
TAFHNL
TAF
PHNL 220525Z 2206/2312 06009KT P6SM FEW030 SCT045
     FM220800 01005KT P6SM FEW045
     FM222100 13009KT P6SM FEW030 SCT045
     FM230400 06007KT P6SM FEW030 SCT045=



000
FTPA31 PHFO 220500
TAFHNL
TAF
PHNL 220525Z 2206/2312 06009KT P6SM FEW030 SCT045
     FM220800 01005KT P6SM FEW045
     FM222100 13009KT P6SM FEW030 SCT045
     FM230400 06007KT P6SM FEW030 SCT045=



000
FTPA31 PHFO 220300 AAA
TAFHNL
TAF AMD
PHNL 220305Z 2203/2306 07009KT P6SM SCT030 BKN045
     FM220500 05005KT P6SM FEW030 SCT045
     FM220800 01005KT P6SM FEW045
     FM222100 13009KT P6SM FEW030 SCT045
     FM230500 06007KT P6SM FEW030 SCT045=



000
FTPA31 PHFO 212300
TAFHNL
TAF
PHNL 212329Z 2200/2306 13009KT P6SM SCT030 SCT050
     FM220500 05005KT P6SM FEW030 SCT045
     FM220800 01005KT P6SM FEW045
     FM222100 13009KT P6SM FEW030 SCT045
     FM230500 06007KT P6SM FEW030 SCT045=



000
FTPA31 PHFO 212100 AAA
TAFHNL
TAF AMD
PHNL 212112Z 2121/2224 13009KT P6SM SCT030 BKN050
     FM220500 05005KT P6SM FEW030 SCT045
     FM220800 01005KT P6SM FEW045
     FM222100 13008KT P6SM FEW030 SCT045=



000
FTPA31 PHFO 211700
TAFHNL
TAF
PHNL 211726Z 2118/2224 35005KT P6SM FEW030 SCT060
     FM212100 13009KT P6SM SCT030 SCT045
     FM220500 05005KT P6SM FEW030 SCT045
     FM220800 01005KT P6SM FEW045
     FM222100 13008KT P6SM FEW030 SCT045=



000
FTPA31 PHFO 211500 AAA
TAFHNL
TAF AMD
PHNL 211505Z 2115/2218 35005KT P6SM FEW030 SCT060
     FM212100 13010KT P6SM SCT030 SCT045
     FM220500 05005KT P6SM FEW030 SCT045
     FM220800 01005KT P6SM FEW045=



000
FTPA31 PHFO 211500 AAA
TAFHNL
TAF AMD
PHNL 211505Z 2115/2218 35005KT P6SM FEW030 SCT060
     FM212100 13010KT P6SM SCT030 SCT045
     FM220500 05005KT P6SM FEW030 SCT045
     FM220800 01005KT P6SM FEW045=



000
FTPA31 PHFO 211100
TAFHNL
TAF
PHNL 211128Z 2112/2218 05005KT P6SM FEW030 SCT060
     FM212100 13010KT P6SM SCT030 SCT045
     FM220500 05005KT P6SM FEW030 SCT045
     FM220800 01005KT P6SM FEW045=



000
FTPA31 PHFO 211100
TAFHNL
TAF
PHNL 211128Z 2112/2218 05005KT P6SM FEW030 SCT060
     FM212100 13010KT P6SM SCT030 SCT045
     FM220500 05005KT P6SM FEW030 SCT045
     FM220800 01005KT P6SM FEW045=



000
FTPA31 PHFO 211100
TAFHNL
TAF
PHNL 211128Z 2112/2218 05005KT P6SM FEW030 SCT060
     FM212100 13010KT P6SM SCT030 SCT045
     FM220500 05005KT P6SM FEW030 SCT045
     FM220800 01005KT P6SM FEW045=



000
FTPA31 PHFO 210900 AAA
TAFHNL
TAF AMD
PHNL 210912Z 2109/2212 05008KT P6SM FEW030 SCT045
     FM212100 12010KT P6SM SCT030 SCT045
     FM220500 05005KT P6SM FEW030 SCT045
     FM220800 01005KT P6SM FEW045=



000
FTPA31 PHFO 210900 AAA
TAFHNL
TAF AMD
PHNL 210912Z 2109/2212 05008KT P6SM FEW030 SCT045
     FM212100 12010KT P6SM SCT030 SCT045
     FM220500 05005KT P6SM FEW030 SCT045
     FM220800 01005KT P6SM FEW045=



000
FTPA31 PHFO 210500
TAFHNL
TAF
PHNL 210529Z 2106/2212 05008KT P6SM FEW030 SCT045 BKN200
     FM212100 12010KT P6SM SCT030 SCT045
     FM220500 05005KT P6SM FEW030 SCT045
     FM220800 01005KT P6SM FEW045=



000
FTPA31 PHFO 210500
TAFHNL
TAF
PHNL 210529Z 2106/2212 05008KT P6SM FEW030 SCT045 BKN200
     FM212100 12010KT P6SM SCT030 SCT045
     FM220500 05005KT P6SM FEW030 SCT045
     FM220800 01005KT P6SM FEW045=



000
FTPA31 PHFO 210100 AAC
TAFHNL
TAF AMD
PHNL 210122Z 2101/2206 06012KT P6SM FEW025 SCT040 BKN250
     FM210500 05006KT P6SM FEW030 SCT045
     FM212100 12010KT P6SM FEW030 SCT045=



000
FTPA31 PHFO 210100 AAC
TAFHNL
TAF AMD
PHNL 210122Z 2101/2206 06012KT P6SM FEW025 SCT040 BKN250
     FM210500 05006KT P6SM FEW030 SCT045
     FM212100 12010KT P6SM FEW030 SCT045=



000
FTPA31 PHFO 210000 AAB
TAFHNL
TAF AMD
PHNL 210037Z 2101/2206 07012KT P6SM FEW025 SCT040 BKN250
     FM210500 05006KT P6SM FEW030 SCT045
     FM212100 12010KT P6SM FEW030 SCT045=



000
FTPA31 PHFO 202300 AAA
TAFHNL
TAF AMD
PHNL 202359Z 2100/2206 07012KT P6SM FEW025 BKN040 BKN250
      TEMPO 2100/2102 11007KT
     FM210500 06006KT P6SM FEW030 SCT045
     FM212100 12010KT P6SM FEW030 SCT045=



000
FTPA31 PHFO 202300 AAA
TAFHNL
TAF AMD
PHNL 202359Z 2100/2206 07012KT P6SM FEW025 BKN040 BKN250
      TEMPO 2100/2102 11007KT
     FM210500 06006KT P6SM FEW030 SCT045
     FM212100 12010KT P6SM FEW030 SCT045=



000
FTPA31 PHFO 202300
TAFHNL
TAF
PHNL 202332Z 2100/2206 06012G17KT P6SM FEW025 SCT040 BKN250
     FM210600 06006KT P6SM FEW030 SCT045
     FM212100 12010KT P6SM FEW030 SCT045=



000
FTPA31 PHFO 202300
TAFHNL
TAF
PHNL 202332Z 2100/2206 06012G17KT P6SM FEW025 SCT040 BKN250
     FM210600 06006KT P6SM FEW030 SCT045
     FM212100 12010KT P6SM FEW030 SCT045=



000
FTPA31 PHFO 202100 AAA
TAFHNL
TAF AMD
PHNL 202107Z 2021/2124 06012G17KT P6SM FEW025 SCT040 BKN250
     FM210600 06006KT P6SM FEW030 SCT045
     FM212000 12008KT P6SM FEW030 SCT045=



000
FTPA31 PHFO 202100 AAA
TAFHNL
TAF AMD
PHNL 202107Z 2021/2124 06012G17KT P6SM FEW025 SCT040 BKN250
     FM210600 06006KT P6SM FEW030 SCT045
     FM212000 12008KT P6SM FEW030 SCT045=



000
FTPA31 PHFO 201700
TAFHNL
TAF
PHNL 201732Z 2018/2124 07008KT P6SM FEW030 SCT060 BKN200
     FM202100 10012KT P6SM VCSH SCT030 SCT050
     FM210600 06006KT P6SM FEW030 SCT045
     FM212000 12008KT P6SM FEW030 SCT045=



000
FTPA31 PHFO 201700
TAFHNL
TAF
PHNL 201732Z 2018/2124 07008KT P6SM FEW030 SCT060 BKN200
     FM202100 10012KT P6SM VCSH SCT030 SCT050
     FM210600 06006KT P6SM FEW030 SCT045
     FM212000 12008KT P6SM FEW030 SCT045=



000
FTPA31 PHFO 201600 AAB
TAFHNL
TAF AMD
PHNL 201617Z 2016/2118 07008KT P6SM VCSH FEW030 SCT060 BKN200
     FM202000 09012G18KT P6SM VCSH SCT030 SCT045
     FM210600 07008KT P6SM FEW030 SCT045=



000
FTPA31 PHFO 201500 AAA
TAFHNL
TAF AMD
PHNL 201505Z 2015/2118 07008KT P6SM VCSH SCT025 BKN045 BKN100
     FM202000 09013G20KT P6SM VCSH SCT030 BKN045
     FM210600 07008KT P6SM FEW030 SCT045=



000
FTPA31 PHFO 201500 AAA
TAFHNL
TAF AMD
PHNL 201505Z 2015/2118 07008KT P6SM VCSH SCT025 BKN045 BKN100
     FM202000 09013G20KT P6SM VCSH SCT030 BKN045
     FM210600 07008KT P6SM FEW030 SCT045=



000
FTPA31 PHFO 201100
TAFHNL
TAF
PHNL 201120Z 2012/2118 07011KT P6SM VCSH SCT025 BKN045 BKN100
     FM202000 09013G20KT P6SM VCSH SCT030 BKN045
     FM210600 07008KT P6SM FEW030 SCT045=



000
FTPA31 PHFO 201100
TAFHNL
TAF
PHNL 201120Z 2012/2118 07011KT P6SM VCSH SCT025 BKN045 BKN100
     FM202000 09013G20KT P6SM VCSH SCT030 BKN045
     FM210600 07008KT P6SM FEW030 SCT045=



000
FTPA31 PHFO 200900 AAA
TAFHNL
TAF AMD
PHNL 200907Z 2009/2112 07011KT P6SM -RA SCT025 BKN045 OVC100
     FM201200 06008KT P6SM VCSH SCT025 BKN045 OVC100
     FM202000 08012G20KT P6SM VCSH SCT030 BKN045
     FM210600 06008KT P6SM FEW030 SCT045=



000
FTPA31 PHFO 200900 AAA
TAFHNL
TAF AMD
PHNL 200907Z 2009/2112 07011KT P6SM -RA SCT025 BKN045 OVC100
     FM201200 06008KT P6SM VCSH SCT025 BKN045 OVC100
     FM202000 08012G20KT P6SM VCSH SCT030 BKN045
     FM210600 06008KT P6SM FEW030 SCT045=



000
FTPA31 PHFO 200500
TAFHNL
TAF
PHNL 200539Z 2006/2112 06011KT P6SM -RA SCT025 BKN045 OVC100
     FM201000 06008KT P6SM VCSH SCT025 BKN045 OVC100
     FM202000 08012G20KT P6SM VCSH SCT030 BKN045
     FM210600 06008KT P6SM FEW030 SCT045=



000
FTPA31 PHFO 200500
TAFHNL
TAF
PHNL 200539Z 2006/2112 06011KT P6SM -RA SCT025 BKN045 OVC100
     FM201000 06008KT P6SM VCSH SCT025 BKN045 OVC100
     FM202000 08012G20KT P6SM VCSH SCT030 BKN045
     FM210600 06008KT P6SM FEW030 SCT045=



000
FTPA31 PHFO 200300 AAA
TAFHNL
TAF AMD
PHNL 200305Z 2003/2106 07012G18KT 6SM RA BR SCT025 BKN040 OVC060
     FM200900 07011KT P6SM VCSH SCT030 BKN045 OVC070=



000
FTPA31 PHFO 200300 AAA
TAFHNL
TAF AMD
PHNL 200305Z 2003/2106 07012G18KT 6SM RA BR SCT025 BKN040 OVC060
     FM200900 07011KT P6SM VCSH SCT030 BKN045 OVC070=



000
FTPA31 PHFO 192300
TAFHNL
TAF
PHNL 192335Z 2000/2106 09010KT 4SM RA BR SCT015 BKN035 OVC060
      TEMPO 2000/2003 3SM +RA BR SCT015 BKN025 OVC050
     FM200300 07012G18KT 6SM RA BR SCT025 BKN040 OVC060
     FM200900 07011KT P6SM VCSH SCT030 BKN045 OVC070=



000
FTPA31 PHFO 192300
TAFHNL
TAF
PHNL 192335Z 2000/2106 09010KT 4SM RA BR SCT015 BKN035 OVC060
      TEMPO 2000/2003 3SM +RA BR SCT015 BKN025 OVC050
     FM200300 07012G18KT 6SM RA BR SCT025 BKN040 OVC060
     FM200900 07011KT P6SM VCSH SCT030 BKN045 OVC070=



000
FTPA31 PHFO 192300
TAFHNL
TAF
PHNL 192335Z 2000/2106 09010KT 4SM RA BR SCT015 BKN035 OVC060
      TEMPO 2000/2003 3SM +RA BR SCT015 BKN025 OVC050
     FM200300 07012G18KT 6SM RA BR SCT025 BKN040 OVC060
     FM200900 07011KT P6SM VCSH SCT030 BKN045 OVC070=



000
FTPA31 PHFO 192300
TAFHNL
TAF
PHNL 192335Z 2000/2106 09010KT 4SM RA BR SCT015 BKN035 OVC060
      TEMPO 2000/2003 3SM +RA BR SCT015 BKN025 OVC050
     FM200300 07012G18KT 6SM RA BR SCT025 BKN040 OVC060
     FM200900 07011KT P6SM VCSH SCT030 BKN045 OVC070=



000
FTPA31 PHFO 192100 AAA
TAFHNL
TAF AMD
PHNL 192104Z 1921/2024 09010KT 5SM RA BR SCT015 BKN035 OVC060
      TEMPO 1921/1924 3SM +RA SCT015 BKN025 OVC050
     FM200300 07012G18KT P6SM VCSH SCT025 BKN040 OVC060
     FM200900 07011KT P6SM VCSH SCT030 BKN045 OVC070=



000
FTPA31 PHFO 191700
TAFHNL
TAF
PHNL 191732Z 1918/2024 09010KT 5SM RA BR SCT015 BKN035 OVC060
      TEMPO 1919/1923 3SM +RA SCT015 BKN025 OVC050
     FM200300 07012G18KT P6SM VCSH SCT025 BKN040 OVC060
     FM200900 07011KT P6SM VCSH SCT030 BKN045 OVC070=



000
FTPA31 PHFO 191700
TAFHNL
TAF
PHNL 191732Z 1918/2024 09010KT 5SM RA BR SCT015 BKN035 OVC060
      TEMPO 1919/1923 3SM +RA SCT015 BKN025 OVC050
     FM200300 07012G18KT P6SM VCSH SCT025 BKN040 OVC060
     FM200900 07011KT P6SM VCSH SCT030 BKN045 OVC070=



000
FTPA31 PHFO 191500 AAA
TAFHNL
TAF AMD
PHNL 191509Z 1915/2018 09010KT 5SM RA BR SCT015 BKN035 OVC060
     FM200300 07012G18KT P6SM VCSH SCT025 BKN040 OVC060
     FM200900 07011KT P6SM VCSH SCT030 BKN045 OVC070=



000
FTPA31 PHFO 191500 AAA
TAFHNL
TAF AMD
PHNL 191509Z 1915/2018 09010KT 5SM RA BR SCT015 BKN035 OVC060
     FM200300 07012G18KT P6SM VCSH SCT025 BKN040 OVC060
     FM200900 07011KT P6SM VCSH SCT030 BKN045 OVC070=



000
FTPA31 PHFO 191100
TAFHNL
TAF
PHNL 191139Z 1912/2018 09012G22KT 6SM -RA BR SCT015 BKN035 OVC060
     FM200300 07012G18KT P6SM VCSH SCT025 BKN040 OVC060
     FM200900 07011KT P6SM VCSH SCT030 BKN045 OVC070=



000
FTPA31 PHFO 191100
TAFHNL
TAF
PHNL 191139Z 1912/2018 09012G22KT 6SM -RA BR SCT015 BKN035 OVC060
     FM200300 07012G18KT P6SM VCSH SCT025 BKN040 OVC060
     FM200900 07011KT P6SM VCSH SCT030 BKN045 OVC070=



    US Dept of Commerce
    National Oceanic and Atmospheric Administration
    National Weather Service
    1325 East West Highway
    Silver Spring, MD 20910
    Page Author: NWS Internet Services Team
Disclaimer
Information Quality
Credits
Glossary
Privacy Policy
Freedom of Information Act (FOIA)
About Us
Career Opportunities